createdAt,value
2018-04-19T00:00:59.406Z,63.20
2018-04-19T00:03:28.521Z,62.90
2018-04-19T00:05:57.708Z,62.90
2018-04-19T00:08:26.799Z,62.90
2018-04-19T00:10:55.904Z,62.90
2018-04-19T00:13:24.992Z,63.00
2018-04-19T00:15:54.860Z,63.00
2018-04-19T00:18:23.981Z,63.00
2018-04-19T00:20:53.071Z,62.90
2018-04-19T00:23:22.145Z,62.90
2018-04-19T00:25:52.075Z,62.90
2018-04-19T00:28:21.927Z,62.90
2018-04-19T00:30:51.041Z,62.90
2018-04-19T00:33:20.155Z,62.90
2018-04-19T00:35:49.300Z,62.90
2018-04-19T00:38:18.423Z,63.50
2018-04-19T00:40:47.548Z,64.20
2018-04-19T00:43:16.713Z,64.40
2018-04-19T00:45:45.832Z,64.60
2018-04-19T00:48:14.981Z,64.70
2018-04-19T00:50:44.063Z,64.30
2018-04-19T00:53:13.143Z,64.50
2018-04-19T00:55:42.216Z,65.00
2018-04-19T00:58:11.406Z,65.00
2018-04-19T01:00:40.516Z,65.20
2018-04-19T01:03:09.620Z,65.10
2018-04-19T01:05:38.712Z,65.10
2018-04-19T01:08:07.831Z,65.00
2018-04-19T01:10:36.964Z,64.40
2018-04-19T01:13:06.039Z,63.40
2018-04-19T01:15:35.180Z,62.90
2018-04-19T01:18:04.312Z,62.80
2018-04-19T01:20:34.163Z,63.40
2018-04-19T01:23:03.307Z,63.40
2018-04-19T01:25:32.425Z,63.60
2018-04-19T01:28:01.578Z,63.90
2018-04-19T01:30:31.435Z,63.50
2018-04-19T01:33:00.598Z,63.40
2018-04-19T01:35:47.668Z,63.70
2018-04-19T01:38:16.763Z,64.00
2018-04-19T01:40:46.605Z,64.30
2018-04-19T01:43:15.760Z,64.30
2018-04-19T01:45:44.839Z,64.40
2018-04-19T01:48:13.907Z,64.40
2018-04-19T01:50:43.057Z,64.00
2018-04-19T01:53:12.181Z,64.60
2018-04-19T01:55:41.268Z,65.50
2018-04-19T01:58:10.347Z,64.80
2018-04-19T02:00:39.480Z,65.70
2018-04-19T02:03:09.352Z,68.00
2018-04-19T02:05:38.450Z,68.00
2018-04-19T02:08:07.538Z,69.00
2018-04-19T02:10:36.647Z,69.60
2018-04-19T02:13:05.803Z,70.00
2018-04-19T02:15:34.980Z,69.70
2018-04-19T02:18:04.100Z,69.20
2018-04-19T02:20:33.229Z,69.70
2018-04-19T02:23:02.315Z,69.50
2018-04-19T02:25:31.395Z,69.40
2018-04-19T02:28:01.272Z,69.10
2018-04-19T02:30:30.379Z,69.10
2018-04-19T02:32:59.540Z,69.40
2018-04-19T02:35:29.391Z,68.80
2018-04-19T02:37:58.580Z,68.70
2018-04-19T02:40:28.441Z,68.60
2018-04-19T02:42:57.547Z,68.40
2018-04-19T02:45:26.632Z,68.80
2018-04-19T02:47:56.535Z,69.20
2018-04-19T02:50:25.676Z,69.00
2018-04-19T02:52:54.748Z,69.70
2018-04-19T02:55:23.927Z,69.80
2018-04-19T02:57:53.052Z,70.20
2018-04-19T03:00:22.175Z,70.10
2018-04-19T03:02:51.263Z,70.30
2018-04-19T03:05:20.575Z,69.90
2018-04-19T03:07:49.727Z,69.40
2018-04-19T03:10:19.596Z,69.70
2018-04-19T03:12:48.764Z,69.70
2018-04-19T03:15:17.855Z,70.30
2018-04-19T03:17:46.980Z,69.90
2018-04-19T03:20:16.093Z,71.10
2018-04-19T03:22:45.179Z,70.80
2018-04-19T03:25:14.324Z,70.60
2018-04-19T03:27:43.454Z,70.20
2018-04-19T03:30:13.376Z,70.00
2018-04-19T03:32:43.274Z,69.80
2018-04-19T03:35:12.363Z,69.80
2018-04-19T03:37:41.468Z,69.70
2018-04-19T03:40:10.558Z,69.80
2018-04-19T03:42:39.639Z,69.70
2018-04-19T03:45:08.755Z,69.60
2018-04-19T03:47:38.637Z,71.20
2018-04-19T03:50:07.727Z,71.00
2018-04-19T03:52:36.855Z,72.00
2018-04-19T03:55:05.944Z,72.00
2018-04-19T03:57:35.096Z,71.00
2018-04-19T04:00:04.432Z,71.00
2018-04-19T04:02:33.603Z,71.00
2018-04-19T04:05:02.692Z,71.40
2018-04-19T04:07:32.271Z,70.80
2018-04-19T04:10:01.357Z,70.50
2018-04-19T04:12:30.481Z,71.00
2018-04-19T04:14:59.567Z,71.00
2018-04-19T04:17:46.541Z,71.00
2018-04-19T04:20:33.599Z,71.70
2018-04-19T04:23:31.140Z,71.90
2018-04-19T04:26:00.233Z,71.80
2018-04-19T04:28:29.353Z,71.20
2018-04-19T04:30:58.513Z,71.20
2018-04-19T04:33:27.644Z,71.10
2018-04-19T04:35:56.762Z,71.10
2018-04-19T04:38:25.859Z,71.10
2018-04-19T04:40:55.037Z,71.00
2018-04-19T04:43:24.926Z,70.30
2018-04-19T04:45:54.043Z,70.90
2018-04-19T04:48:23.140Z,69.60
2018-04-19T04:50:52.315Z,69.50
2018-04-19T04:53:21.432Z,70.50
2018-04-19T04:55:50.522Z,70.10
2018-04-19T04:58:20.406Z,69.40
2018-04-19T05:00:50.289Z,70.70
2018-04-19T05:03:19.400Z,70.70
2018-04-19T05:05:49.278Z,70.50
2018-04-19T05:08:18.443Z,70.50
2018-04-19T05:10:48.316Z,71.40
2018-04-19T05:13:17.447Z,70.80
2018-04-19T05:15:46.595Z,69.80
2018-04-19T05:18:15.681Z,69.50
2018-04-19T05:20:44.766Z,69.70
2018-04-19T05:23:13.851Z,69.70
2018-04-19T05:25:42.964Z,69.30
2018-04-19T05:28:12.047Z,69.00
2018-04-19T05:30:41.184Z,68.30
2018-04-19T05:33:10.342Z,67.90
2018-04-19T05:35:39.424Z,67.70
2018-04-19T05:38:08.584Z,67.80
2018-04-19T05:40:38.430Z,67.50
2018-04-19T05:43:07.539Z,67.40
2018-04-19T05:45:36.661Z,67.60
2018-04-19T05:48:05.867Z,67.10
2018-04-19T05:50:34.938Z,67.40
2018-04-19T05:53:04.034Z,67.30
2018-04-19T05:55:33.114Z,66.90
2018-04-19T05:58:02.231Z,66.40
2018-04-19T06:00:31.313Z,66.50
2018-04-19T06:03:00.473Z,66.70
2018-04-19T06:05:29.622Z,66.20
2018-04-19T06:07:59.467Z,65.10
2018-04-19T06:10:33.904Z,65.10
2018-04-19T06:13:03.008Z,65.00
2018-04-19T06:15:32.159Z,64.10
2018-04-19T06:18:01.277Z,63.80
2018-04-19T06:20:30.359Z,63.50
2018-04-19T06:22:59.436Z,63.00
2018-04-19T06:25:29.355Z,60.80
2018-04-19T06:27:59.194Z,60.60
2018-04-19T06:30:29.079Z,60.30
2018-04-19T06:32:58.163Z,60.30
2018-04-19T06:35:27.243Z,60.40
2018-04-19T06:37:57.211Z,60.70
2018-04-19T06:40:26.325Z,60.20
2018-04-19T06:42:55.455Z,60.20
2018-04-19T06:45:24.576Z,59.90
2018-04-19T06:47:53.655Z,59.60
2018-04-19T06:50:22.767Z,59.70
2018-04-19T06:52:51.884Z,58.90
2018-04-19T06:55:21.854Z,57.30
2018-04-19T06:57:51.797Z,56.90
2018-04-19T07:00:20.960Z,56.90
2018-04-19T07:02:50.042Z,56.60
2018-04-19T07:05:19.123Z,56.60
2018-04-19T07:07:49.022Z,55.50
2018-04-19T07:10:18.189Z,55.40
2018-04-19T07:12:47.291Z,54.80
2018-04-19T07:15:16.401Z,54.60
2018-04-19T07:17:45.517Z,54.40
2018-04-19T07:20:14.658Z,54.00
2018-04-19T07:22:43.772Z,53.10
2018-04-19T07:25:12.942Z,53.00
2018-04-19T07:27:42.096Z,53.20
2018-04-19T07:30:11.983Z,53.10
2018-04-19T07:32:41.090Z,53.20
2018-04-19T07:35:10.204Z,52.40
2018-04-19T07:37:39.314Z,52.40
2018-04-19T07:40:08.424Z,51.70
2018-04-19T07:42:37.532Z,51.30
2018-04-19T07:45:06.611Z,51.20
2018-04-19T07:47:35.828Z,50.90
2018-04-19T07:50:04.908Z,51.00
2018-04-19T07:52:33.984Z,50.90
2018-04-19T07:55:03.091Z,50.60
2018-04-19T07:57:32.195Z,50.00
2018-04-19T08:00:01.321Z,50.20
2018-04-19T08:02:30.404Z,50.00
2018-04-19T08:05:00.284Z,49.00
2018-04-19T08:07:29.350Z,49.00
2018-04-19T08:09:59.225Z,49.10
2018-04-19T08:12:28.339Z,49.00
2018-04-19T08:14:57.407Z,48.60
2018-04-19T08:17:26.484Z,48.10
2018-04-19T08:19:55.555Z,47.90
2018-04-19T08:22:24.628Z,48.00
2018-04-19T08:24:53.701Z,46.90
2018-04-19T08:27:24.313Z,46.60
2018-04-19T08:29:53.423Z,46.60
2018-04-19T08:32:22.495Z,46.80
2018-04-19T08:34:52.415Z,46.20
2018-04-19T08:37:22.293Z,46.20
2018-04-19T08:39:51.468Z,46.10
2018-04-19T08:42:20.572Z,45.60
2018-04-19T08:44:49.861Z,46.30
2018-04-19T08:47:19.013Z,46.40
2018-04-19T08:49:48.135Z,45.50
2018-04-19T08:52:17.241Z,45.20
2018-04-19T08:54:46.318Z,45.20
2018-04-19T08:57:15.424Z,44.40
2018-04-19T08:59:44.609Z,44.30
2018-04-19T09:02:13.747Z,44.20
2018-04-19T09:04:42.883Z,43.00
2018-04-19T09:07:11.997Z,43.40
2018-04-19T09:09:41.124Z,43.20
2018-04-19T09:12:10.218Z,43.80
2018-04-19T09:14:40.078Z,41.80
2018-04-19T09:17:09.151Z,41.70
2018-04-19T09:19:38.986Z,42.70
2018-04-19T09:22:08.148Z,42.70
2018-04-19T09:24:37.252Z,42.20
2018-04-19T09:27:06.323Z,41.90
2018-04-19T09:29:35.451Z,41.20
2018-04-19T09:32:05.723Z,40.90
2018-04-19T09:34:34.824Z,40.90
2018-04-19T09:37:03.904Z,41.00
2018-04-19T09:39:32.979Z,41.10
2018-04-19T09:42:03.535Z,41.50
2018-04-19T09:44:33.376Z,40.90
2018-04-19T09:47:02.472Z,40.80
2018-04-19T09:49:32.306Z,39.90
2018-04-19T09:52:01.482Z,39.90
2018-04-19T09:54:30.558Z,39.60
2018-04-19T09:56:59.628Z,39.40
2018-04-19T09:59:29.500Z,39.10
2018-04-19T10:02:04.531Z,39.10
2018-04-19T10:04:33.599Z,38.30
2018-04-19T10:07:02.755Z,38.40
2018-04-19T10:09:31.822Z,38.00
2018-04-19T10:12:02.232Z,39.10
2018-04-19T10:14:31.389Z,38.40
2018-04-19T10:17:00.549Z,38.40
2018-04-19T10:19:29.619Z,38.00
2018-04-19T10:21:58.980Z,37.70
2018-04-19T10:24:28.079Z,37.70
2018-04-19T10:26:57.151Z,36.80
2018-04-19T10:29:27.074Z,35.30
2018-04-19T10:31:56.911Z,35.70
2018-04-19T10:34:26.018Z,35.50
2018-04-19T10:36:55.885Z,34.20
2018-04-19T10:39:24.997Z,34.20
2018-04-19T10:41:54.112Z,34.20
2018-04-19T10:44:23.221Z,34.30
2018-04-19T10:46:52.320Z,34.30
2018-04-19T10:49:21.428Z,35.30
2018-04-19T10:51:50.499Z,35.20
2018-04-19T10:54:20.395Z,34.60
2018-04-19T10:56:49.501Z,34.60
2018-04-19T10:59:18.609Z,33.90
2018-04-19T11:01:47.695Z,34.60
2018-04-19T11:04:16.819Z,35.20
2018-04-19T11:06:45.957Z,35.60
2018-04-19T11:09:15.187Z,36.10
2018-04-19T11:11:44.255Z,35.70
2018-04-19T11:14:13.356Z,35.50
2018-04-19T11:16:42.461Z,36.10
2018-04-19T11:19:11.558Z,36.40
2018-04-19T11:21:40.655Z,35.60
2018-04-19T11:24:09.837Z,36.40
2018-04-19T11:26:38.944Z,36.20
2018-04-19T11:29:08.019Z,36.20
2018-04-19T11:31:37.140Z,35.90
2018-04-19T11:34:06.213Z,36.40
2018-04-19T11:36:35.322Z,35.40
2018-04-19T11:39:04.440Z,35.20
2018-04-19T11:41:33.515Z,35.00
2018-04-19T11:44:02.688Z,35.00
2018-04-19T11:46:31.789Z,35.00
2018-04-19T11:49:00.896Z,34.60
2018-04-19T11:51:30.014Z,34.10
2018-04-19T11:53:59.082Z,34.40
2018-04-19T11:56:28.948Z,34.90
2018-04-19T11:58:58.087Z,34.80
2018-04-19T12:01:27.187Z,34.90
2018-04-19T12:03:56.246Z,34.40
2018-04-19T12:06:26.084Z,34.50
2018-04-19T12:08:55.156Z,34.40
2018-04-19T12:11:24.294Z,33.60
2018-04-19T12:13:54.214Z,33.90
2018-04-19T12:16:24.083Z,34.50
2018-04-19T12:18:53.192Z,34.50
2018-04-19T12:21:22.269Z,33.40
2018-04-19T12:23:52.096Z,33.80
2018-04-19T12:26:21.200Z,33.70
2018-04-19T12:28:51.136Z,32.50
2018-04-19T12:31:21.008Z,32.70
2018-04-19T12:33:50.083Z,32.70
2018-04-19T12:36:19.185Z,33.10
2018-04-19T12:38:49.074Z,33.60
2018-04-19T12:41:18.147Z,33.60
2018-04-19T12:43:47.220Z,32.80
2018-04-19T12:46:17.090Z,33.70
2018-04-19T12:48:46.226Z,33.40
2018-04-19T12:51:15.331Z,33.70
2018-04-19T12:53:44.421Z,33.40
2018-04-19T12:56:13.515Z,33.30
2018-04-19T12:58:42.617Z,33.20
2018-04-19T13:01:11.816Z,32.60
2018-04-19T13:03:41.642Z,32.60
2018-04-19T13:06:11.509Z,32.30
2018-04-19T13:08:40.610Z,32.30
2018-04-19T13:11:09.776Z,32.90
2018-04-19T13:13:38.884Z,32.80
2018-04-19T13:16:07.994Z,32.20
2018-04-19T13:18:37.359Z,33.40
2018-04-19T13:21:06.436Z,33.20
2018-04-19T13:23:36.304Z,32.70
2018-04-19T13:26:05.379Z,32.60
2018-04-19T13:28:35.203Z,32.40
2018-04-19T13:31:05.072Z,32.10
2018-04-19T13:33:34.173Z,32.00
2018-04-19T13:36:03.496Z,33.40
2018-04-19T13:38:32.624Z,31.70
2018-04-19T13:41:01.741Z,31.50
2018-04-19T13:43:30.861Z,31.00
2018-04-19T13:45:59.963Z,31.10
2018-04-19T13:48:29.035Z,32.10
2018-04-19T13:50:58.101Z,31.00
2018-04-19T13:53:27.191Z,31.10
2018-04-19T13:55:56.304Z,31.00
2018-04-19T13:58:25.444Z,31.80
2018-04-19T14:00:55.286Z,30.80
2018-04-19T14:03:25.233Z,31.90
2018-04-19T14:05:54.358Z,31.90
2018-04-19T14:08:24.265Z,30.90
2018-04-19T14:10:53.400Z,30.90
2018-04-19T14:13:22.488Z,31.00
2018-04-19T14:15:51.637Z,30.70
2018-04-19T14:18:20.743Z,30.70
2018-04-19T14:20:49.852Z,31.20
2018-04-19T14:23:18.940Z,30.90
2018-04-19T14:25:48.045Z,31.10
2018-04-19T14:28:17.125Z,30.90
2018-04-19T14:30:46.980Z,31.10
2018-04-19T14:33:16.043Z,31.10
2018-04-19T14:35:45.180Z,31.10
2018-04-19T14:38:15.045Z,31.10
2018-04-19T14:40:44.150Z,31.10
2018-04-19T14:43:13.215Z,31.10
2018-04-19T14:45:42.284Z,30.80
2018-04-19T14:48:11.352Z,30.70
2018-04-19T14:50:41.212Z,30.90
2018-04-19T14:53:10.352Z,30.90
2018-04-19T14:55:39.418Z,31.00
2018-04-19T14:58:08.512Z,31.10
2018-04-19T15:00:38.399Z,31.20
2018-04-19T15:03:07.715Z,31.20
2018-04-19T15:05:36.900Z,31.00
2018-04-19T15:08:06.009Z,31.00
2018-04-19T15:10:35.121Z,31.10
2018-04-19T15:13:04.221Z,30.80
2018-04-19T15:15:33.291Z,31.70
2018-04-19T15:18:02.388Z,32.00
2018-04-19T15:20:31.611Z,31.40
2018-04-19T15:23:00.711Z,30.80
2018-04-19T15:25:31.308Z,32.60
2018-04-19T15:28:00.435Z,32.00
2018-04-19T15:30:30.278Z,31.00
2018-04-19T15:32:59.376Z,31.00
2018-04-19T15:35:28.447Z,32.30
2018-04-19T15:37:58.325Z,30.70
2018-04-19T15:40:27.431Z,30.70
2018-04-19T15:42:56.544Z,30.50
2018-04-19T15:45:25.655Z,31.10
2018-04-19T15:47:54.771Z,30.60
2018-04-19T15:50:23.811Z,30.70
2018-04-19T15:52:52.997Z,30.60
2018-04-19T15:55:22.084Z,31.30
2018-04-19T15:57:51.276Z,31.50
2018-04-19T16:00:20.410Z,32.10
2018-04-19T16:02:49.552Z,32.00
2018-04-19T16:05:18.630Z,32.10
2018-04-19T16:07:47.735Z,31.90
2018-04-19T16:10:16.804Z,31.80
2018-04-19T16:12:46.677Z,31.60
2018-04-19T16:15:15.752Z,31.60
2018-04-19T16:17:45.617Z,31.80
2018-04-19T16:20:14.751Z,31.80
2018-04-19T16:22:43.848Z,30.30
2018-04-19T16:25:12.987Z,31.50
2018-04-19T16:27:42.059Z,31.00
2018-04-19T16:30:11.136Z,31.00
2018-04-19T16:32:40.977Z,32.10
2018-04-19T16:35:10.049Z,32.00
2018-04-19T16:37:39.169Z,31.20
2018-04-19T16:40:09.100Z,31.70
2018-04-19T16:42:39.004Z,32.60
2018-04-19T16:45:08.071Z,32.50
2018-04-19T16:47:37.224Z,33.00
2018-04-19T16:50:06.327Z,33.10
2018-04-19T16:52:35.436Z,33.60
2018-04-19T16:55:04.540Z,33.90
2018-04-19T16:57:33.644Z,33.90
2018-04-19T17:00:02.819Z,34.40
2018-04-19T17:02:31.953Z,34.90
2018-04-19T17:05:01.055Z,34.90
2018-04-19T17:07:30.182Z,34.80
2018-04-19T17:09:59.274Z,34.10
2018-04-19T17:12:28.521Z,34.60
2018-04-19T17:14:57.592Z,35.60
2018-04-19T17:17:26.688Z,35.90
2018-04-19T17:19:55.764Z,36.10
2018-04-19T17:22:24.864Z,35.80
2018-04-19T17:24:53.985Z,36.40
2018-04-19T17:27:23.098Z,36.90
2018-04-19T17:29:52.167Z,37.00
2018-04-19T17:32:21.283Z,38.30
2018-04-19T17:34:50.393Z,38.00
2018-04-19T17:37:19.468Z,38.80
2018-04-19T17:39:49.358Z,40.30
2018-04-19T17:42:18.427Z,40.30
2018-04-19T17:44:47.500Z,40.80
2018-04-19T17:47:16.568Z,41.60
2018-04-19T17:49:45.655Z,42.10
2018-04-19T17:52:14.747Z,42.30
2018-04-19T17:54:43.984Z,42.70
2018-04-19T17:57:13.067Z,42.80
2018-04-19T17:59:42.904Z,43.30
2018-04-19T18:02:12.052Z,43.30
2018-04-19T18:04:41.917Z,43.40
2018-04-19T18:07:11.787Z,43.70
2018-04-19T18:09:40.898Z,43.70
2018-04-19T18:12:10.044Z,44.30
2018-04-19T18:14:39.155Z,44.60
2018-04-19T18:17:08.259Z,45.10
2018-04-19T18:19:37.332Z,45.70
2018-04-19T18:22:06.428Z,45.90
2018-04-19T18:24:36.308Z,46.70
2018-04-19T18:27:05.379Z,46.70
2018-04-19T18:29:34.515Z,47.00
2018-04-19T18:32:03.664Z,47.30
2018-04-19T18:34:32.759Z,47.30
2018-04-19T18:37:01.839Z,47.60
2018-04-19T18:39:30.940Z,48.10
2018-04-19T18:42:00.040Z,47.80
2018-04-19T18:44:29.218Z,48.10
2018-04-19T18:46:58.283Z,48.30
2018-04-19T18:49:27.376Z,49.30
2018-04-19T18:51:56.477Z,48.80
2018-04-19T18:54:25.551Z,48.90
2018-04-19T18:56:54.651Z,49.50
2018-04-19T18:59:23.775Z,49.50
2018-04-19T19:01:52.888Z,49.60
2018-04-19T19:04:22.556Z,49.40
2018-04-19T19:06:51.655Z,49.80
2018-04-19T19:09:20.720Z,49.50
2018-04-19T19:11:49.897Z,49.40
2018-04-19T19:14:18.968Z,49.90
2018-04-19T19:16:48.838Z,49.50
2018-04-19T19:19:35.723Z,49.50
2018-04-19T19:22:05.575Z,50.00
2018-04-19T19:24:34.672Z,49.90
2018-04-19T19:27:04.588Z,50.30
2018-04-19T19:29:34.464Z,50.70
2018-04-19T19:32:03.577Z,50.60
2018-04-19T19:34:32.689Z,50.60
2018-04-19T19:37:01.796Z,51.00
2018-04-19T19:39:30.946Z,51.10
2018-04-19T19:42:00.019Z,51.50
2018-04-19T19:44:29.117Z,51.50
2018-04-19T19:46:58.246Z,51.50
2018-04-19T19:49:27.302Z,51.60
2018-04-19T19:51:57.130Z,51.90
2018-04-19T19:54:26.993Z,51.90
2018-04-19T19:56:56.104Z,51.90
2018-04-19T19:59:25.233Z,52.20
2018-04-19T20:01:54.363Z,52.90
2018-04-19T20:04:23.483Z,53.10
2018-04-19T20:06:52.574Z,53.00
2018-04-19T20:09:21.673Z,53.10
2018-04-19T20:11:50.788Z,53.60
2018-04-19T20:14:19.852Z,53.40
2018-04-19T20:16:49.713Z,53.50
2018-04-19T20:19:18.783Z,53.40
2018-04-19T20:21:48.609Z,53.40
2018-04-19T20:24:18.467Z,53.40
2018-04-19T20:26:47.568Z,53.30
2018-04-19T20:29:16.639Z,53.30
2018-04-19T20:31:45.740Z,53.30
2018-04-19T20:34:14.874Z,53.20
2018-04-19T20:36:44.740Z,53.80
2018-04-19T20:39:13.809Z,53.80
2018-04-19T20:41:43.672Z,55.80
2018-04-19T20:44:12.759Z,55.10
2018-04-19T20:46:42.658Z,56.60
2018-04-19T20:49:11.748Z,56.60
2018-04-19T20:51:40.852Z,56.70
2018-04-19T20:54:10.022Z,57.20
2018-04-19T20:56:39.860Z,57.40
2018-04-19T20:59:08.992Z,57.30
2018-04-19T21:01:38.121Z,57.70
2018-04-19T21:04:07.237Z,57.80
2018-04-19T21:06:36.417Z,58.40
2018-04-19T21:09:07.222Z,58.40
2018-04-19T21:11:36.300Z,58.30
2018-04-19T21:14:05.409Z,58.40
2018-04-19T21:16:34.568Z,58.50
2018-04-19T21:19:04.407Z,59.70
2018-04-19T21:21:34.272Z,59.60
2018-04-19T21:24:03.351Z,59.60
2018-04-19T21:26:32.423Z,59.80
2018-04-19T21:29:01.508Z,59.50
2018-04-19T21:31:30.606Z,59.60
2018-04-19T21:33:59.671Z,59.80
2018-04-19T21:36:29.552Z,60.30
2018-04-19T21:38:58.623Z,60.30
2018-04-19T21:41:27.729Z,60.60
2018-04-19T21:43:56.807Z,60.90
2018-04-19T21:46:26.312Z,61.50
2018-04-19T21:48:55.424Z,61.40
2018-04-19T21:51:24.551Z,61.40
2018-04-19T21:53:53.648Z,61.90
2018-04-19T21:56:22.728Z,62.30
2018-04-19T21:58:51.860Z,62.70
2018-04-19T22:01:21.284Z,62.60
2018-04-19T22:03:51.193Z,64.00
2018-04-19T22:06:20.308Z,64.00
2018-04-19T22:08:49.449Z,65.40
2018-04-19T22:11:18.589Z,65.80
2018-04-19T22:13:47.700Z,65.70
2018-04-19T22:16:17.383Z,65.60
2018-04-19T22:18:46.501Z,65.00
2018-04-19T22:21:15.572Z,65.10
2018-04-19T22:23:44.683Z,65.50
2018-04-19T22:26:13.792Z,65.50
2018-04-19T22:28:42.904Z,66.60
2018-04-19T22:31:11.985Z,67.00
2018-04-19T22:33:41.066Z,67.60
2018-04-19T22:36:10.172Z,67.60
2018-04-19T22:38:39.282Z,67.70
2018-04-19T22:41:08.386Z,67.60
2018-04-19T22:43:37.458Z,67.80
2018-04-19T22:46:06.634Z,67.40
2018-04-19T22:48:36.480Z,67.70
2018-04-19T22:51:05.579Z,67.70
2018-04-19T22:53:35.461Z,67.80
2018-04-19T22:56:04.583Z,67.70
2018-04-19T22:58:33.681Z,67.60
2018-04-19T23:01:02.847Z,67.50
2018-04-19T23:03:32.707Z,68.30
2018-04-19T23:06:01.906Z,68.10
2018-04-19T23:08:31.053Z,67.90
2018-04-19T23:11:00.211Z,68.00
2018-04-19T23:13:29.316Z,68.30
2018-04-19T23:15:59.197Z,67.30
2018-04-19T23:18:28.324Z,67.30
2018-04-19T23:20:57.494Z,67.80
2018-04-19T23:23:26.604Z,68.00
2018-04-19T23:25:55.713Z,68.20
2018-04-19T23:28:24.816Z,68.10
2018-04-19T23:30:54.076Z,68.00
2018-04-19T23:33:23.223Z,68.10
2018-04-19T23:35:52.399Z,67.80
2018-04-19T23:38:21.512Z,68.00
2018-04-19T23:40:51.498Z,68.00
2018-04-19T23:43:20.632Z,68.00
2018-04-19T23:45:49.740Z,68.00
2018-04-19T23:48:18.888Z,68.50
2018-04-19T23:50:47.991Z,68.60
2018-04-19T23:53:17.105Z,69.60
2018-04-19T23:55:46.212Z,69.60
2018-04-19T23:58:15.324Z,69.60
